Antofagasta, Chile
Current Conditions -  °F | °C
As of 9:00 PM on Saturday 25 Oct 2014 (Local Time) from SCFA Reporting Station
Overcast Overcast  
Wind Chill: 64°   Ceiling: 2200
Heat Index: 64°   Visibility: 6mi
Dew Point: 52°   Wind: 13mph
Humidity: 64%   Direction: 340°NNW
Pressure: 30.03"   Gusts: NA
Location:  23.65°S, 70.39°W
Report Text: SCFA 260100Z 34011KT 9999 OVC022 18/11 Q1017 NOSIG
Loading
Personal Weather Stations






























Interactive Weather Map
Tropical Storm Tracking
New forecast layout! Learn more

10-Day Weather Forecast

Advertisements
Track Severe Weather on mobile